Time;durP1;ratioP1;P1;durP2;ratioP2;P2;SDS_P1;SDS_P2;PMS_P1;PMS_P2;Temp;Humidity;BMP_temperature;BMP_pressure;BME280_temperature;BME280_humidity;BME280_pressure;Samples;Min_cycle;Max_cycle;Signal;HPM_P1;HPM_P2
2022/10/25 00:01:02;;;;;;;8.80;2.90;;;;;;;;;;106669;1309;22076;-79
2022/10/25 00:03:33;;;;;;;8.70;3.30;;;;;;;;;;106678;1309;22062;-79
2022/10/25 00:06:00;;;;;;;10.10;3.20;;;;;;;;;;106662;1309;22162;-79
2022/10/25 00:08:29;;;;;;;9.40;3.10;;;;;;;;;;106636;1304;22127;-80
2022/10/25 00:10:58;;;;;;;12.40;3.30;;;;;;;;;;106496;1311;22050;-79
2022/10/25 00:13:27;;;;;;;7.80;2.90;;;;;;;;;;106600;1310;22731;-80
2022/10/25 00:15:56;;;;;;;6.60;3.00;;;;;;;;;;106604;1310;22059;-79
2022/10/25 00:18:25;;;;;;;7.70;2.80;;;;;;;;;;106552;1310;22060;-80
2022/10/25 00:20:54;;;;;;;11.00;3.20;;;;;;;;;;106675;1309;22114;-79
2022/10/25 00:23:23;;;;;;;8.40;3.00;;;;;;;;;;106446;1311;22813;-79
2022/10/25 00:26:00;;;;;;;8.90;2.90;;;;;;;;;;106562;1310;22060;-80
2022/10/25 00:28:29;;;;;;;11.00;3.40;;;;;;;;;;106483;1311;22861;-80
2022/10/25 00:31:11;;;;;;;10.90;3.30;;;;;;;;;;106556;1309;22113;-79
2022/10/25 00:33:41;;;;;;;10.20;3.60;;;;;;;;;;106557;1310;22051;-80
2022/10/25 00:36:12;;;;;;;9.10;3.30;;;;;;;;;;106566;1311;22045;-80
2022/10/25 00:38:42;;;;;;;8.00;3.10;;;;;;;;;;106588;1310;22667;-80
2022/10/25 00:41:12;;;;;;;9.20;3.00;;;;;;;;;;106604;1310;22181;-80
2022/10/25 00:43:42;;;;;;;9.70;3.20;;;;;;;;;;106516;1310;22065;-79
2022/10/25 00:46:25;;;;;;;9.30;3.00;;;;;;;;;;106494;1310;22120;-80
2022/10/25 00:48:57;;;;;;;7.10;2.60;;;;;;;;;;106556;1310;22073;-80
2022/10/25 00:51:53;;;;;;;8.20;2.90;;;;;;;;;;106358;1302;22015;-80
2022/10/25 00:54:24;;;;;;;10.00;3.20;;;;;;;;;;106579;1310;22131;-80
2022/10/25 00:56:54;;;;;;;7.10;2.90;;;;;;;;;;106594;1310;22063;-80
2022/10/25 00:59:25;;;;;;;9.90;3.60;;;;;;;;;;106617;1310;22750;-80
2022/10/25 01:01:55;;;;;;;7.00;3.20;;;;;;;;;;106502;1305;22056;-80
2022/10/25 01:04:27;;;;;;;8.90;3.00;;;;;;;;;;106567;1310;22524;-80
2022/10/25 01:14:01;;;;;;;9.50;3.20;;;;;;;;;;100454;1341;545000;-85
2022/10/25 01:16:29;;;;;;;8.40;3.00;;;;;;;;;;102776;1316;22464;-81
2022/10/25 01:19:26;;;;;;;5.90;2.50;;;;;;;;;;103256;1310;22667;-85
2022/10/25 01:22:13;;;;;;;8.70;3.10;;;;;;;;;;103309;1310;22538;-81
2022/10/25 01:25:12;;;;;;;8.80;3.20;;;;;;;;;;103301;1310;22477;-83
2022/10/25 01:27:54;;;;;;;9.40;3.20;;;;;;;;;;102562;1315;138331;-81
2022/10/25 01:30:25;;;;;;;7.30;2.90;;;;;;;;;;102754;1315;22669;-85
2022/10/25 01:33:02;;;;;;;9.40;3.00;;;;;;;;;;102687;1316;26613;-86
2022/10/25 01:35:42;;;;;;;7.90;2.50;;;;;;;;;;102752;1315;22509;-82
2022/10/25 01:38:12;;;;;;;8.30;3.10;;;;;;;;;;102731;1310;22477;-84
2022/10/25 01:40:39;;;;;;;8.90;2.90;;;;;;;;;;102816;1316;23329;-84
2022/10/25 01:43:15;;;;;;;8.90;3.20;;;;;;;;;;102880;1316;24331;-84
2022/10/25 01:45:45;;;;;;;9.30;3.50;;;;;;;;;;102850;1316;22491;-86
2022/10/25 01:48:14;;;;;;;8.10;3.40;;;;;;;;;;102744;1316;22490;-87
2022/10/25 01:50:42;;;;;;;8.20;3.20;;;;;;;;;;102773;1314;23099;-81
2022/10/25 01:53:09;;;;;;;10.70;3.10;;;;;;;;;;102699;1292;22506;-87
2022/10/25 01:55:39;;;;;;;9.20;3.10;;;;;;;;;;103012;1310;25281;-82
2022/10/25 01:58:14;;;;;;;8.70;2.90;;;;;;;;;;102960;1310;23993;-84
2022/10/25 02:00:52;;;;;;;7.80;3.20;;;;;;;;;;102965;1312;22478;-83
2022/10/25 02:03:39;;;;;;;11.10;5.20;;;;;;;;;;103208;1304;23845;-80
2022/10/25 02:06:21;;;;;;;14.20;6.60;;;;;;;;;;103538;1304;24320;-81
2022/10/25 02:08:56;;;;;;;10.50;5.20;;;;;;;;;;103644;1288;22514;-85
2022/10/25 02:11:24;;;;;;;11.40;4.80;;;;;;;;;;103505;1307;26440;-80
2022/10/25 02:14:09;;;;;;;10.20;4.50;;;;;;;;;;103411;1283;22469;-82
2022/10/25 02:16:38;;;;;;;9.80;3.80;;;;;;;;;;103630;1283;22462;-80
2022/10/25 02:19:06;;;;;;;7.20;3.30;;;;;;;;;;103802;1304;22699;-82
2022/10/25 02:21:35;;;;;;;10.70;3.60;;;;;;;;;;103581;1304;22471;-82
2022/10/25 02:24:07;;;;;;;9.80;3.30;;;;;;;;;;103611;1304;24313;-80
2022/10/25 02:26:35;;;;;;;10.30;2.70;;;;;;;;;;103464;1306;22555;-82
2022/10/25 02:29:03;;;;;;;7.40;2.90;;;;;;;;;;103409;1301;22468;-86
2022/10/25 02:31:31;;;;;;;7.80;2.70;;;;;;;;;;103309;1307;24078;-82
2022/10/25 02:33:58;;;;;;;6.80;2.70;;;;;;;;;;103639;1307;23834;-85
2022/10/25 02:36:24;;;;;;;7.20;2.60;;;;;;;;;;103524;1304;25286;-80
2022/10/25 02:38:52;;;;;;;9.60;2.70;;;;;;;;;;103565;1304;24313;-87
2022/10/25 02:41:19;;;;;;;8.60;2.70;;;;;;;;;;103540;1299;23579;-86
2022/10/25 02:43:46;;;;;;;7.40;2.50;;;;;;;;;;103664;1306;22463;-81
2022/10/25 02:46:14;;;;;;;8.20;3.10;;;;;;;;;;103517;1307;25297;-80
2022/10/25 02:48:41;;;;;;;9.40;3.20;;;;;;;;;;103504;1298;25382;-83
2022/10/25 02:51:09;;;;;;;7.90;3.30;;;;;;;;;;103593;1307;24251;-83
2022/10/25 02:53:35;;;;;;;10.00;3.70;;;;;;;;;;103559;1307;22472;-82
2022/10/25 02:56:04;;;;;;;9.60;4.20;;;;;;;;;;103497;1304;25303;-85
2022/10/25 02:58:31;;;;;;;10.40;4.40;;;;;;;;;;103547;1304;24426;-80
2022/10/25 03:00:58;;;;;;;9.90;4.50;;;;;;;;;;103489;1304;22506;-87
2022/10/25 03:03:25;;;;;;;9.60;4.30;;;;;;;;;;103704;1303;22668;-82
2022/10/25 03:05:51;;;;;;;11.80;4.80;;;;;;;;;;103595;1305;23974;-85
2022/10/25 03:08:18;;;;;;;9.20;4.20;;;;;;;;;;103525;1307;22498;-85
2022/10/25 03:10:45;;;;;;;11.30;4.60;;;;;;;;;;103616;1307;24380;-82
2022/10/25 03:13:12;;;;;;;12.30;4.00;;;;;;;;;;103444;1306;24209;-86
2022/10/25 03:15:38;;;;;;;12.50;3.80;;;;;;;;;;103421;1304;22745;-82
2022/10/25 03:18:05;;;;;;;10.30;3.80;;;;;;;;;;103308;1304;22464;-82
2022/10/25 03:20:32;;;;;;;7.50;3.30;;;;;;;;;;103552;1304;22473;-81
2022/10/25 03:22:58;;;;;;;8.70;3.20;;;;;;;;;;103494;1304;22449;-81
2022/10/25 03:25:25;;;;;;;12.50;3.10;;;;;;;;;;103574;1304;22466;-82
2022/10/25 03:27:51;;;;;;;10.80;3.70;;;;;;;;;;103502;1305;22512;-86
2022/10/25 03:30:18;;;;;;;10.30;3.30;;;;;;;;;;103464;1307;25716;-82
2022/10/25 03:32:45;;;;;;;9.90;3.70;;;;;;;;;;103521;1307;25481;-82
2022/10/25 03:35:11;;;;;;;10.20;4.70;;;;;;;;;;103279;1306;24233;-81
2022/10/25 03:37:38;;;;;;;13.50;4.20;;;;;;;;;;103321;1304;22835;-82
2022/10/25 03:40:05;;;;;;;10.70;4.90;;;;;;;;;;103362;1304;22489;-80
2022/10/25 03:42:31;;;;;;;12.10;5.80;;;;;;;;;;103447;1304;25256;-86
2022/10/25 03:44:58;;;;;;;12.50;5.20;;;;;;;;;;103512;1304;24374;-84
2022/10/25 03:47:24;;;;;;;11.10;4.70;;;;;;;;;;103458;1299;24870;-81
2022/10/25 03:49:51;;;;;;;8.90;3.90;;;;;;;;;;103474;1297;24423;-85
2022/10/25 03:52:18;;;;;;;11.50;3.70;;;;;;;;;;103492;1307;22565;-84
2022/10/25 03:54:44;;;;;;;11.50;3.90;;;;;;;;;;103360;1305;22826;-83
2022/10/25 03:57:11;;;;;;;16.50;3.70;;;;;;;;;;103267;1304;22610;-84
2022/10/25 03:59:38;;;;;;;10.90;3.50;;;;;;;;;;103412;1304;22477;-84
2022/10/25 04:02:04;;;;;;;12.30;3.40;;;;;;;;;;103553;1304;22481;-81
2022/10/25 04:04:31;;;;;;;9.10;3.60;;;;;;;;;;103578;1304;25261;-86
2022/10/25 04:06:57;;;;;;;10.60;3.80;;;;;;;;;;103397;1307;22467;-83
2022/10/25 04:09:24;;;;;;;10.30;3.70;;;;;;;;;;103610;1305;22480;-81
2022/10/25 04:11:51;;;;;;;9.20;3.20;;;;;;;;;;103456;1307;21679;-81
2022/10/25 04:14:17;;;;;;;10.80;3.40;;;;;;;;;;103488;1298;22724;-84
2022/10/25 04:16:44;;;;;;;10.40;4.00;;;;;;;;;;103466;1307;24282;-80
2022/10/25 04:19:11;;;;;;;10.10;3.40;;;;;;;;;;103433;1304;22591;-85
2022/10/25 04:21:37;;;;;;;9.00;3.60;;;;;;;;;;103541;1301;22487;-85
2022/10/25 04:24:04;;;;;;;8.80;3.40;;;;;;;;;;103462;1304;25340;-82
2022/10/25 04:26:33;;;;;;;10.30;3.80;;;;;;;;;;103695;1304;24217;-86
2022/10/25 04:29:00;;;;;;;9.20;3.00;;;;;;;;;;103427;1307;24189;-81
2022/10/25 04:31:27;;;;;;;11.50;3.80;;;;;;;;;;103411;1302;23164;-82
2022/10/25 04:33:54;;;;;;;6.90;3.10;;;;;;;;;;103608;1305;22465;-85
2022/10/25 04:36:21;;;;;;;7.90;3.60;;;;;;;;;;103468;1304;21690;-85
2022/10/25 04:38:49;;;;;;;10.00;4.00;;;;;;;;;;103387;1301;22474;-86
2022/10/25 04:41:16;;;;;;;10.80;3.60;;;;;;;;;;103519;1299;24506;-85
2022/10/25 04:43:43;;;;;;;8.90;4.10;;;;;;;;;;103845;1304;23212;-80
2022/10/25 04:46:10;;;;;;;14.30;5.30;;;;;;;;;;103643;1304;25377;-81
2022/10/25 04:48:38;;;;;;;8.60;3.90;;;;;;;;;;103653;1304;25355;-81
2022/10/25 04:51:06;;;;;;;9.10;4.00;;;;;;;;;;103414;1305;22474;-83
2022/10/25 04:53:32;;;;;;;7.70;3.30;;;;;;;;;;103524;1305;22509;-86
2022/10/25 04:56:00;;;;;;;13.80;4.00;;;;;;;;;;103739;1288;22882;-82
2022/10/25 04:58:27;;;;;;;8.60;3.50;;;;;;;;;;103547;1304;22491;-82
2022/10/25 05:00:57;;;;;;;10.60;4.10;;;;;;;;;;103528;1304;24819;-86
2022/10/25 05:03:24;;;;;;;10.40;4.20;;;;;;;;;;103754;1304;24234;-82
2022/10/25 05:05:50;;;;;;;8.90;4.60;;;;;;;;;;103776;1304;25253;-83
2022/10/25 05:08:17;;;;;;;9.70;4.50;;;;;;;;;;103599;1305;25205;-83
2022/10/25 05:10:44;;;;;;;10.40;4.30;;;;;;;;;;103529;1307;22488;-83
2022/10/25 05:13:10;;;;;;;10.50;4.50;;;;;;;;;;103472;1304;24216;-81
2022/10/25 05:15:37;;;;;;;11.10;3.90;;;;;;;;;;103730;1275;22470;-80
2022/10/25 05:18:03;;;;;;;12.00;4.10;;;;;;;;;;103899;1289;25670;-86
2022/10/25 05:20:30;;;;;;;10.50;4.40;;;;;;;;;;103432;1282;22484;-80
2022/10/25 05:22:57;;;;;;;10.00;4.80;;;;;;;;;;103554;1291;25309;-81
2022/10/25 05:25:23;;;;;;;13.50;4.80;;;;;;;;;;103639;1275;21688;-83
2022/10/25 05:27:50;;;;;;;14.00;5.00;;;;;;;;;;103921;1289;22471;-81
2022/10/25 05:30:17;;;;;;;12.30;4.90;;;;;;;;;;103580;1289;25329;-83
2022/10/25 05:32:43;;;;;;;12.90;4.70;;;;;;;;;;103371;1304;22577;-85
2022/10/25 05:35:10;;;;;;;10.20;4.80;;;;;;;;;;103542;1306;24242;-80
2022/10/25 05:37:36;;;;;;;13.40;5.10;;;;;;;;;;103558;1307;25271;-82
2022/10/25 05:40:03;;;;;;;14.40;5.40;;;;;;;;;;103424;1304;23873;-82
2022/10/25 05:42:30;;;;;;;17.90;7.90;;;;;;;;;;103582;1278;25219;-84
2022/10/25 05:44:56;;;;;;;14.90;7.10;;;;;;;;;;103497;1304;22668;-83
2022/10/25 05:47:23;;;;;;;19.30;7.40;;;;;;;;;;103701;1295;22470;-82
2022/10/25 05:49:49;;;;;;;16.90;6.40;;;;;;;;;;103455;1306;25535;-86
2022/10/25 05:52:16;;;;;;;13.40;6.30;;;;;;;;;;103254;1306;22454;-81
2022/10/25 05:54:43;;;;;;;16.10;6.90;;;;;;;;;;103589;1305;22460;-86
2022/10/25 05:57:09;;;;;;;16.20;5.90;;;;;;;;;;103652;1306;25605;-82
2022/10/25 05:59:36;;;;;;;17.10;6.00;;;;;;;;;;103545;1304;22482;-81
2022/10/25 06:02:03;;;;;;;19.40;6.70;;;;;;;;;;103454;1304;25337;-86
2022/10/25 06:04:29;;;;;;;21.60;6.60;;;;;;;;;;103888;1307;23518;-79
2022/10/25 06:06:56;;;;;;;19.00;6.70;;;;;;;;;;103745;1304;23855;-81
2022/10/25 06:09:23;;;;;;;17.00;6.50;;;;;;;;;;103425;1306;22893;-85
2022/10/25 06:11:49;;;;;;;19.80;7.20;;;;;;;;;;103482;1306;22470;-87
2022/10/25 06:14:16;;;;;;;21.60;7.10;;;;;;;;;;103241;1307;24259;-81
2022/10/25 06:16:43;;;;;;;20.70;6.10;;;;;;;;;;103464;1306;22474;-88
2022/10/25 06:19:09;;;;;;;16.50;4.70;;;;;;;;;;103412;1306;22466;-81
2022/10/25 06:21:36;;;;;;;15.40;4.80;;;;;;;;;;103439;1307;22464;-81
2022/10/25 06:24:03;;;;;;;14.30;4.30;;;;;;;;;;103429;1304;25431;-85
2022/10/25 06:26:29;;;;;;;15.80;4.70;;;;;;;;;;103443;1307;23172;-81
2022/10/25 06:28:57;;;;;;;17.20;4.70;;;;;;;;;;103570;1305;25275;-82
2022/10/25 06:31:25;;;;;;;14.30;4.80;;;;;;;;;;103480;1297;22482;-84
2022/10/25 06:33:52;;;;;;;15.10;5.10;;;;;;;;;;103205;1294;22488;-82
2022/10/25 06:36:19;;;;;;;16.00;5.60;;;;;;;;;;103481;1307;23998;-85
2022/10/25 06:38:46;;;;;;;13.10;5.20;;;;;;;;;;103498;1306;22433;-82
2022/10/25 06:41:14;;;;;;;15.20;6.00;;;;;;;;;;103379;1307;22849;-79
2022/10/25 06:55:21;;;;;;;20.60;6.60;;;;;;;;;;100457;1337;545190;-82
2022/10/25 06:57:47;;;;;;;16.20;6.70;;;;;;;;;;102485;1318;22617;-88
2022/10/25 07:00:13;;;;;;;16.90;5.70;;;;;;;;;;102273;1319;24715;-82
2022/10/25 07:02:39;;;;;;;17.80;6.10;;;;;;;;;;102358;1314;22863;-84
2022/10/25 07:05:05;;;;;;;15.10;6.00;;;;;;;;;;102444;1318;25336;-83
2022/10/25 07:07:31;;;;;;;13.20;5.30;;;;;;;;;;102299;1316;181700;-83
2022/10/25 07:09:57;;;;;;;11.10;4.80;;;;;;;;;;102534;1316;25331;-86
2022/10/25 07:12:22;;;;;;;18.10;5.30;;;;;;;;;;102551;1316;22598;-86
2022/10/25 07:14:48;;;;;;;19.50;5.70;;;;;;;;;;102578;1316;22477;-84
2022/10/25 07:17:14;;;;;;;14.80;6.40;;;;;;;;;;102425;1316;22491;-83
2022/10/25 07:19:40;;;;;;;16.20;6.40;;;;;;;;;;102469;1316;22481;-83
2022/10/25 07:22:06;;;;;;;18.00;6.20;;;;;;;;;;102436;1316;22598;-81
2022/10/25 07:24:32;;;;;;;19.50;7.30;;;;;;;;;;102323;1316;22488;-82
2022/10/25 07:26:58;;;;;;;16.70;6.30;;;;;;;;;;102353;1316;24279;-85
2022/10/25 07:29:24;;;;;;;15.50;4.90;;;;;;;;;;103035;1310;22464;-84
2022/10/25 07:31:50;;;;;;;18.10;6.40;;;;;;;;;;103240;1310;25168;-89
2022/10/25 07:34:16;;;;;;;12.30;4.30;;;;;;;;;;103090;1310;23831;-84
2022/10/25 07:36:42;;;;;;;16.30;5.80;;;;;;;;;;103033;1309;22586;-81
2022/10/25 07:39:08;;;;;;;13.30;5.00;;;;;;;;;;103114;1309;24246;-83
2022/10/25 07:41:35;;;;;;;14.70;4.90;;;;;;;;;;103191;1310;22535;-84
2022/10/25 07:44:01;;;;;;;15.30;6.00;;;;;;;;;;103082;1310;25378;-81
2022/10/25 07:46:26;;;;;;;16.20;5.70;;;;;;;;;;103231;1309;24483;-85
2022/10/25 07:48:52;;;;;;;15.50;4.70;;;;;;;;;;103150;1310;24270;-87
2022/10/25 07:51:18;;;;;;;14.10;4.60;;;;;;;;;;103010;1311;24311;-82
2022/10/25 07:53:44;;;;;;;18.20;6.00;;;;;;;;;;103282;1301;22714;-84
2022/10/25 07:56:11;;;;;;;13.00;5.30;;;;;;;;;;103040;1301;24389;-84
2022/10/25 07:58:37;;;;;;;12.60;5.60;;;;;;;;;;103064;1310;25553;-80
2022/10/25 08:01:04;;;;;;;11.50;4.90;;;;;;;;;;103050;1310;25248;-82
2022/10/25 08:03:30;;;;;;;10.00;4.10;;;;;;;;;;103044;1310;22549;-89
2022/10/25 08:05:56;;;;;;;8.20;2.90;;;;;;;;;;103130;1310;24343;-89
2022/10/25 08:08:24;;;;;;;8.90;3.30;;;;;;;;;;103038;1311;25288;-86
2022/10/25 08:10:50;;;;;;;11.70;3.70;;;;;;;;;;103089;1310;22471;-85
2022/10/25 08:13:16;;;;;;;10.50;3.90;;;;;;;;;;102984;1310;23303;-81
2022/10/25 08:15:48;;;;;;;7.10;3.20;;;;;;;;;;103079;1310;22467;-84
2022/10/25 08:18:14;;;;;;;8.30;3.50;;;;;;;;;;102991;1310;22489;-82
2022/10/25 08:20:39;;;;;;;10.70;3.50;;;;;;;;;;102991;1309;22551;-80
2022/10/25 08:23:06;;;;;;;10.10;3.20;;;;;;;;;;103057;1309;24408;-84
2022/10/25 08:25:31;;;;;;;8.10;3.00;;;;;;;;;;103115;1310;22465;-86
2022/10/25 08:27:57;;;;;;;9.00;3.30;;;;;;;;;;103032;1310;24425;-82
2022/10/25 08:30:23;;;;;;;8.50;3.30;;;;;;;;;;103130;1310;22592;-83
2022/10/25 08:32:49;;;;;;;7.00;2.90;;;;;;;;;;103084;1310;25332;-82
2022/10/25 08:35:15;;;;;;;10.10;3.40;;;;;;;;;;103266;1310;22472;-83
2022/10/25 08:37:41;;;;;;;13.20;3.80;;;;;;;;;;103220;1310;22655;-84
2022/10/25 08:40:27;;;;;;;8.50;2.90;;;;;;;;;;103108;1310;25301;-85
2022/10/25 08:43:06;;;;;;;7.40;3.10;;;;;;;;;;103097;1309;22474;-84
2022/10/25 08:45:36;;;;;;;10.90;3.30;;;;;;;;;;103219;1294;23002;-84
2022/10/25 08:48:03;;;;;;;7.30;2.70;;;;;;;;;;103080;1310;24380;-88
2022/10/25 08:50:36;;;;;;;9.60;3.00;;;;;;;;;;103132;1310;23869;-86
2022/10/25 08:53:04;;;;;;;8.50;3.10;;;;;;;;;;103069;1310;22507;-85
2022/10/25 08:55:35;;;;;;;7.60;3.00;;;;;;;;;;103045;1310;25456;-80
2022/10/25 08:58:06;;;;;;;7.90;3.10;;;;;;;;;;103050;1309;22465;-82
2022/10/25 09:00:36;;;;;;;12.00;3.10;;;;;;;;;;103056;1310;22460;-84
2022/10/25 09:03:03;;;;;;;7.70;2.80;;;;;;;;;;102961;1301;23192;-88
2022/10/25 09:05:38;;;;;;;8.80;3.50;;;;;;;;;;103086;1309;22937;-86
2022/10/25 09:08:15;;;;;;;9.30;3.30;;;;;;;;;;103150;1310;24370;-83
2022/10/25 09:10:48;;;;;;;8.70;2.90;;;;;;;;;;102999;1310;21859;-82
2022/10/25 09:13:20;;;;;;;9.20;3.20;;;;;;;;;;103089;1310;23895;-83
2022/10/25 09:15:53;;;;;;;8.30;2.80;;;;;;;;;;103123;1310;22473;-86
2022/10/25 09:18:21;;;;;;;9.80;3.00;;;;;;;;;;103127;1303;24344;-85
2022/10/25 09:20:49;;;;;;;9.30;2.70;;;;;;;;;;103079;1309;25407;-82
2022/10/25 09:23:24;;;;;;;8.60;3.20;;;;;;;;;;103243;1309;22478;-85
2022/10/25 09:25:49;;;;;;;9.40;2.20;;;;;;;;;;103154;1309;22482;-85
2022/10/25 09:28:18;;;;;;;5.60;1.60;;;;;;;;;;103181;1304;23258;-81
2022/10/25 09:30:44;;;;;;;7.60;2.30;;;;;;;;;;103186;1309;22525;-81
2022/10/25 09:33:16;;;;;;;9.90;2.80;;;;;;;;;;103154;1310;22864;-81
2022/10/25 09:35:47;;;;;;;13.30;2.50;;;;;;;;;;103299;1310;25239;-81
2022/10/25 09:38:18;;;;;;;12.80;2.80;;;;;;;;;;103084;1307;23031;-81
2022/10/25 09:40:49;;;;;;;6.40;1.50;;;;;;;;;;103132;1296;23094;-82
2022/10/25 09:43:17;;;;;;;8.20;1.20;;;;;;;;;;103463;1305;25192;-82
2022/10/25 09:45:43;;;;;;;7.60;1.50;;;;;;;;;;103299;1305;25267;-80
2022/10/25 09:48:24;;;;;;;7.80;1.40;;;;;;;;;;103337;1306;22478;-83
2022/10/25 09:51:01;;;;;;;6.70;1.30;;;;;;;;;;103409;1305;22465;-86
2022/10/25 09:53:29;;;;;;;11.50;1.50;;;;;;;;;;103488;1306;23796;-83
2022/10/25 09:55:55;;;;;;;7.80;1.70;;;;;;;;;;103426;1306;26500;-82
2022/10/25 09:58:21;;;;;;;9.80;1.90;;;;;;;;;;103505;1306;25287;-84
2022/10/25 10:00:48;;;;;;;9.60;2.80;;;;;;;;;;103292;1306;24282;-80
2022/10/25 10:03:14;;;;;;;7.30;2.10;;;;;;;;;;103449;1306;22461;-81
2022/10/25 10:05:44;;;;;;;9.00;2.40;;;;;;;;;;103437;1294;22844;-89
2022/10/25 10:08:09;;;;;;;9.20;3.20;;;;;;;;;;103486;1305;22670;-83
2022/10/25 10:10:36;;;;;;;10.60;2.70;;;;;;;;;;103431;1306;22486;-84
2022/10/25 10:13:17;;;;;;;16.00;4.80;;;;;;;;;;103453;1305;22472;-86
2022/10/25 10:15:47;;;;;;;11.40;2.70;;;;;;;;;;103494;1298;22645;-85
2022/10/25 10:18:30;;;;;;;9.30;1.50;;;;;;;;;;103364;1307;22535;-88
2022/10/25 10:21:11;;;;;;;5.80;1.10;;;;;;;;;;103550;1306;22480;-82
2022/10/25 10:23:37;;;;;;;6.20;1.10;;;;;;;;;;103513;1306;22481;-84
2022/10/25 10:26:17;;;;;;;4.20;0.90;;;;;;;;;;103394;1306;21845;-84
2022/10/25 10:28:44;;;;;;;4.30;0.90;;;;;;;;;;103284;1306;24354;-80
2022/10/25 10:31:10;;;;;;;3.90;0.90;;;;;;;;;;103242;1306;24236;-89
2022/10/25 10:33:37;;;;;;;6.00;1.10;;;;;;;;;;103389;1306;22470;-83
2022/10/25 10:36:38;;;;;;;4.80;1.00;;;;;;;;;;103318;1306;22582;-77
2022/10/25 10:39:21;;;;;;;7.00;1.00;;;;;;;;;;102857;1298;22479;-83
2022/10/25 10:41:57;;;;;;;4.00;1.00;;;;;;;;;;102744;1300;22477;-85
2022/10/25 10:44:23;;;;;;;4.90;1.00;;;;;;;;;;102905;1313;22470;-88
2022/10/25 10:46:48;;;;;;;6.30;1.00;;;;;;;;;;102879;1314;25221;-86
2022/10/25 10:49:14;;;;;;;5.20;1.00;;;;;;;;;;102619;1313;23029;-81
2022/10/25 10:51:42;;;;;;;7.90;1.00;;;;;;;;;;102719;1314;24234;-82
2022/10/25 10:54:27;;;;;;;5.60;0.90;;;;;;;;;;102815;1315;22476;-81
2022/10/25 10:56:57;;;;;;;6.30;0.80;;;;;;;;;;102884;1313;25314;-83
2022/10/25 10:59:27;;;;;;;8.10;1.10;;;;;;;;;;102940;1307;22469;-86
2022/10/25 11:01:53;;;;;;;5.20;1.00;;;;;;;;;;102914;1314;24174;-83
2022/10/25 11:04:18;;;;;;;6.50;1.20;;;;;;;;;;102758;1314;23879;-85
2022/10/25 11:06:44;;;;;;;4.90;1.10;;;;;;;;;;106394;1313;22117;-80
2022/10/25 11:09:11;;;;;;;8.10;1.10;;;;;;;;;;106265;1314;22653;-81
2022/10/25 11:11:37;;;;;;;6.50;1.00;;;;;;;;;;106278;1315;22371;-81
2022/10/25 11:14:08;;;;;;;7.80;1.10;;;;;;;;;;106513;1306;22814;-81
2022/10/25 11:16:50;;;;;;;7.40;1.10;;;;;;;;;;106786;1306;22429;-81
2022/10/25 11:19:22;;;;;;;9.20;1.50;;;;;;;;;;106812;1306;22094;-81
2022/10/25 11:21:48;;;;;;;8.50;1.50;;;;;;;;;;106920;1306;22091;-81
2022/10/25 11:24:32;;;;;;;6.40;1.10;;;;;;;;;;106911;1306;22152;-80
2022/10/25 11:27:12;;;;;;;5.40;1.30;;;;;;;;;;106839;1307;22058;-81
2022/10/25 11:29:41;;;;;;;5.80;1.50;;;;;;;;;;106850;1301;22073;-81
2022/10/25 11:32:10;;;;;;;6.20;1.50;;;;;;;;;;106923;1306;22082;-81
2022/10/25 11:34:42;;;;;;;5.70;1.30;;;;;;;;;;106754;1307;22766;-78
2022/10/25 11:37:25;;;;;;;5.70;1.10;;;;;;;;;;106870;1307;22076;-82
2022/10/25 11:39:54;;;;;;;10.50;1.00;;;;;;;;;;106898;1301;22089;-81
2022/10/25 11:42:20;;;;;;;4.80;1.10;;;;;;;;;;106848;1295;22055;-81
2022/10/25 11:45:01;;;;;;;6.90;1.10;;;;;;;;;;106936;1306;22784;-82
2022/10/25 11:47:43;;;;;;;4.10;0.90;;;;;;;;;;106697;1307;22051;-81
2022/10/25 11:50:16;;;;;;;4.00;0.70;;;;;;;;;;106901;1298;22062;-80
2022/10/25 11:52:45;;;;;;;6.10;1.20;;;;;;;;;;106776;1306;22080;-80
2022/10/25 11:55:14;;;;;;;7.20;1.30;;;;;;;;;;106969;1306;22695;-81
2022/10/25 11:57:46;;;;;;;5.80;0.70;;;;;;;;;;106940;1306;21993;-82
2022/10/25 12:00:16;;;;;;;3.40;0.80;;;;;;;;;;106871;1305;22698;-81
2022/10/25 12:02:43;;;;;;;6.10;2.00;;;;;;;;;;106660;1306;22751;-82
2022/10/25 12:05:19;;;;;;;7.80;1.60;;;;;;;;;;106909;1305;22058;-81
2022/10/25 12:08:09;;;;;;;4.20;0.90;;;;;;;;;;106749;1308;21787;-81
2022/10/25 12:10:37;;;;;;;7.40;0.90;;;;;;;;;;106807;1300;22371;-81
2022/10/25 12:13:09;;;;;;;7.00;1.30;;;;;;;;;;106724;1309;22096;-80
2022/10/25 12:15:43;;;;;;;8.80;1.70;;;;;;;;;;106722;1307;22124;-81
2022/10/25 12:18:12;;;;;;;4.60;1.10;;;;;;;;;;106723;1306;22090;-81
2022/10/25 12:20:39;;;;;;;4.20;1.10;;;;;;;;;;106721;1298;22364;-78
2022/10/25 12:23:09;;;;;;;6.40;1.60;;;;;;;;;;106746;1309;22115;-81
2022/10/25 12:25:38;;;;;;;6.30;1.60;;;;;;;;;;106655;1308;22024;-81
2022/10/25 12:28:12;;;;;;;5.00;1.20;;;;;;;;;;106724;1309;22800;-81
2022/10/25 12:30:40;;;;;;;5.90;1.40;;;;;;;;;;106815;1294;22265;-79
2022/10/25 12:33:13;;;;;;;7.20;2.00;;;;;;;;;;106777;1306;22835;-80
2022/10/25 12:35:43;;;;;;;6.20;1.70;;;;;;;;;;106737;1303;22435;-80
2022/10/25 12:38:30;;;;;;;7.10;2.00;;;;;;;;;;106778;1306;22904;-81
2022/10/25 12:40:59;;;;;;;8.70;2.00;;;;;;;;;;107029;1287;22021;-80
2022/10/25 12:43:55;;;;;;;8.30;2.10;;;;;;;;;;106748;1299;22123;-81
2022/10/25 12:46:39;;;;;;;9.00;2.20;;;;;;;;;;106663;1308;22841;-80
2022/10/25 12:49:11;;;;;;;6.30;1.40;;;;;;;;;;106735;1308;22459;-80
2022/10/25 12:51:58;;;;;;;7.20;1.40;;;;;;;;;;107054;1294;22101;-78
2022/10/25 12:54:31;;;;;;;9.90;1.40;;;;;;;;;;106918;1306;22063;-80
2022/10/25 12:57:03;;;;;;;8.40;1.60;;;;;;;;;;106712;1309;22443;-80
2022/10/25 12:59:47;;;;;;;6.60;1.40;;;;;;;;;;106900;1305;22808;-80
2022/10/25 13:02:28;;;;;;;5.60;1.30;;;;;;;;;;106733;1308;22069;-80
2022/10/25 13:04:54;;;;;;;10.20;1.40;;;;;;;;;;106883;1308;22057;-80
2022/10/25 13:07:21;;;;;;;9.70;1.70;;;;;;;;;;106841;1306;22127;-81
2022/10/25 13:09:49;;;;;;;7.70;1.50;;;;;;;;;;106699;1304;22084;-81
2022/10/25 13:12:15;;;;;;;6.60;1.70;;;;;;;;;;106666;1310;22075;-80
2022/10/25 13:14:45;;;;;;;9.30;1.70;;;;;;;;;;106851;1306;22722;-80
2022/10/25 13:17:14;;;;;;;9.60;2.00;;;;;;;;;;106676;1306;22055;-81
2022/10/25 13:19:47;;;;;;;7.60;1.70;;;;;;;;;;106847;1307;22332;-80
2022/10/25 13:22:30;;;;;;;8.00;2.10;;;;;;;;;;106629;1306;22429;-81
2022/10/25 13:24:59;;;;;;;10.60;3.10;;;;;;;;;;106681;1309;21736;-82
2022/10/25 13:27:28;;;;;;;10.00;2.60;;;;;;;;;;106645;1296;22081;-82
2022/10/25 13:30:00;;;;;;;7.10;2.50;;;;;;;;;;106713;1309;22649;-82
2022/10/25 13:32:28;;;;;;;10.80;2.00;;;;;;;;;;106769;1307;22211;-82
2022/10/25 13:34:57;;;;;;;6.30;2.30;;;;;;;;;;106687;1307;22333;-80
2022/10/25 13:37:33;;;;;;;7.60;3.30;;;;;;;;;;106704;1307;22146;-82
2022/10/25 13:40:01;;;;;;;6.60;2.00;;;;;;;;;;106862;1306;22882;-82
2022/10/25 13:42:27;;;;;;;7.30;1.70;;;;;;;;;;106690;1309;22107;-82
2022/10/25 13:44:55;;;;;;;10.00;2.20;;;;;;;;;;106865;1308;21978;-82
2022/10/25 13:47:40;;;;;;;7.40;2.20;;;;;;;;;;106650;1309;22059;-82
2022/10/25 13:50:14;;;;;;;9.90;2.30;;;;;;;;;;106666;1309;22103;-83
2022/10/25 13:52:48;;;;;;;9.50;2.00;;;;;;;;;;106803;1307;22091;-82
2022/10/25 13:55:15;;;;;;;8.70;2.30;;;;;;;;;;106847;1306;22082;-83
2022/10/25 13:57:48;;;;;;;7.20;1.70;;;;;;;;;;106684;1307;22055;-83
2022/10/25 14:00:32;;;;;;;10.10;2.10;;;;;;;;;;106720;1310;22077;-81
2022/10/25 14:03:24;;;;;;;8.50;2.00;;;;;;;;;;106609;1309;22086;-81
2022/10/25 14:05:56;;;;;;;6.90;1.30;;;;;;;;;;106693;1309;22964;-82
2022/10/25 14:08:37;;;;;;;6.00;1.10;;;;;;;;;;106791;1310;21943;-81
2022/10/25 14:11:12;;;;;;;4.80;1.20;;;;;;;;;;106659;1312;22627;-81
2022/10/25 14:13:50;;;;;;;5.60;1.30;;;;;;;;;;106661;1308;22726;-81
2022/10/25 14:16:23;;;;;;;6.10;1.20;;;;;;;;;;106710;1300;22690;-82
2022/10/25 14:18:50;;;;;;;6.70;1.10;;;;;;;;;;106729;1310;23134;-81
2022/10/25 14:21:17;;;;;;;6.20;1.20;;;;;;;;;;106701;1308;22067;-82
2022/10/25 14:23:47;;;;;;;9.60;2.10;;;;;;;;;;106666;1294;22074;-82
2022/10/25 14:26:15;;;;;;;14.90;3.30;;;;;;;;;;106737;1305;22063;-83
2022/10/25 14:28:40;;;;;;;11.10;2.70;;;;;;;;;;106775;1309;22276;-83
2022/10/25 14:31:10;;;;;;;10.20;2.60;;;;;;;;;;106783;1303;21936;-83
2022/10/25 14:34:02;;;;;;;10.30;2.00;;;;;;;;;;106687;1311;22065;-83
2022/10/25 14:36:29;;;;;;;6.30;1.50;;;;;;;;;;106735;1310;22901;-82
2022/10/25 14:38:57;;;;;;;6.30;1.70;;;;;;;;;;106729;1307;22026;-82
2022/10/25 14:41:24;;;;;;;9.40;1.90;;;;;;;;;;106672;1304;22092;-82
2022/10/25 14:43:50;;;;;;;8.70;1.80;;;;;;;;;;106611;1311;22129;-82
2022/10/25 14:46:17;;;;;;;5.10;1.30;;;;;;;;;;106695;1311;22084;-82
2022/10/25 14:48:47;;;;;;;6.80;2.00;;;;;;;;;;106600;1310;22120;-82
2022/10/25 14:51:13;;;;;;;7.50;2.10;;;;;;;;;;106645;1309;22332;-82
2022/10/25 14:53:48;;;;;;;8.20;2.00;;;;;;;;;;106617;1308;22165;-82
2022/10/25 14:56:18;;;;;;;6.20;2.00;;;;;;;;;;106682;1312;22715;-82
2022/10/25 14:58:44;;;;;;;7.30;1.70;;;;;;;;;;106865;1312;22794;-82